Time,TemperatureF,DewpointF,PressureIn,WindDirection,WindDirectionDegrees,WindSpeedMPH,WindSpeedGustMPH,Humidity,HourlyPrecipIn,Conditions,Clouds,dailyrainin,SoftwareType,DateUTC
2013-01-23 00:00:00,7.9,3.3,30.19,North,349,0.0,0.0,81,0.00,,,0.00,WeatherDisplay:10.37,2013-01-23 05:00:00,
2013-01-23 00:03:00,7.8,3.2,30.19,West,265,2.0,2.0,81,0.00,CLR,,0.00,WeatherDisplay:10.37,2013-01-23 05:03:00,
2013-01-23 00:05:00,7.8,2.9,30.19,WNW,293,2.3,2.3,80,0.00,,,0.00,WeatherDisplay:10.37,2013-01-23 05:05:00,
2013-01-23 00:10:00,7.7,2.5,30.19,WSW,256,0.0,0.0,79,0.00,,,0.00,WeatherDisplay:10.37,2013-01-23 05:10:00,
2013-01-23 00:15:00,7.5,2.3,30.19,NE,34,2.3,2.3,79,0.00,,,0.00,WeatherDisplay:10.37,2013-01-23 05:15:00,
2013-01-23 00:20:00,7.5,2.1,30.19,NNW,343,4.6,4.6,78,0.00,,,0.00,WeatherDisplay:10.37,2013-01-23 05:20:00,
2013-01-23 00:25:00,7.4,2.0,30.19,WNW,302,4.0,4.0,78,0.00,,,0.00,WeatherDisplay:10.37,2013-01-23 05:25:00,
2013-01-23 00:30:00,7.4,2.3,30.18,WSW,246,2.3,2.3,79,0.00,,,0.00,WeatherDisplay:10.37,2013-01-23 05:30:00,
2013-01-23 00:35:00,7.2,2.1,30.19,ENE,69,1.1,1.1,79,0.00,,,0.00,WeatherDisplay:10.37,2013-01-23 05:35:00,
2013-01-23 00:40:00,7.2,2.1,30.18,SSW,198,1.1,0.0,79,0.00,,,0.00,WeatherDisplay:10.37,2013-01-23 05:40:00,
2013-01-23 00:45:00,7.2,2.1,30.18,West,271,2.3,2.3,79,0.00,,,0.00,WeatherDisplay:10.37,2013-01-23 05:45:00,
2013-01-23 00:50:00,7.2,2.1,30.18,NNW,347,3.5,3.5,79,0.00,,,0.00,WeatherDisplay:10.37,2013-01-23 05:50:00,
2013-01-23 00:55:00,7.2,1.8,30.18,West,262,3.5,3.5,78,0.00,,,0.00,WeatherDisplay:10.37,2013-01-23 05:55:00,
2013-01-23 01:00:00,7.2,2.1,30.18,WNW,283,5.8,5.8,79,0.00,,,0.00,WeatherDisplay:10.37,2013-01-23 06:00:00,
2013-01-23 01:05:00,7.3,2.2,30.18,West,280,3.5,3.5,79,0.00,,,0.00,WeatherDisplay:10.37,2013-01-23 06:05:00,
2013-01-23 01:10:00,7.3,2.2,30.18,West,260,1.0,0.0,79,0.00,,,0.00,WeatherDisplay:10.37,2013-01-23 06:10:00,
2013-01-23 01:15:00,7.3,2.4,30.18,WNW,294,1.1,0.0,80,0.00,,,0.00,WeatherDisplay:10.37,2013-01-23 06:15:00,
2013-01-23 01:21:00,7.2,2.3,30.18,ENE,64,2.0,2.0,80,0.00,,,0.00,WeatherDisplay:10.37,2013-01-23 06:21:00,
2013-01-23 01:26:00,7.2,2.1,30.19,West,278,1.0,0.0,79,0.00,,,0.00,WeatherDisplay:10.37,2013-01-23 06:26:00,
2013-01-23 01:31:00,7.2,1.8,30.19,West,268,1.1,1.1,78,0.00,,,0.00,WeatherDisplay:10.37,2013-01-23 06:31:00,
2013-01-23 01:36:00,7.3,1.6,30.19,West,269,2.3,2.3,77,0.00,,,0.00,WeatherDisplay:10.37,2013-01-23 06:36:00,
2013-01-23 01:41:00,7.4,1.7,30.19,NNW,338,2.0,2.0,77,0.00,,,0.00,WeatherDisplay:10.37,2013-01-23 06:41:00,
2013-01-23 01:46:00,7.4,1.7,30.19,NW,306,1.0,1.0,77,0.00,,,0.00,WeatherDisplay:10.37,2013-01-23 06:46:00,
2013-01-23 01:51:00,7.5,1.5,30.19,West,277,2.3,2.3,76,0.00,,,0.00,WeatherDisplay:10.37,2013-01-23 06:51:00,
2013-01-23 01:56:00,7.6,1.9,30.19,WSW,258,2.3,2.3,77,0.00,,,0.00,WeatherDisplay:10.37,2013-01-23 06:56:00,
2013-01-23 02:01:00,7.6,1.9,30.19,NNW,333,3.5,3.5,77,0.00,,,0.00,WeatherDisplay:10.37,2013-01-23 07:01:00,
2013-01-23 02:06:00,7.7,2.0,30.19,WNW,283,2.3,2.3,77,0.00,,,0.00,WeatherDisplay:10.37,2013-01-23 07:06:00,
2013-01-23 02:11:00,7.7,1.7,30.20,North,4,3.0,3.0,76,0.00,,,0.00,WeatherDisplay:10.37,2013-01-23 07:11:00,
2013-01-23 02:16:00,7.7,2.0,30.20,WSW,243,0.0,0.0,77,0.00,,,0.00,WeatherDisplay:10.37,2013-01-23 07:16:00,
2013-01-23 02:21:00,7.7,1.7,30.20,West,270,0.0,0.0,76,0.00,,,0.00,WeatherDisplay:10.37,2013-01-23 07:21:00,
2013-01-23 02:26:00,7.6,1.0,30.20,West,266,4.6,0.0,74,0.00,,,0.00,WeatherDisplay:10.37,2013-01-23 07:26:00,
2013-01-23 02:32:00,7.6,1.3,30.20,SW,229,5.0,5.0,75,0.00,,,0.00,WeatherDisplay:10.37,2013-01-23 07:32:00,
2013-01-23 02:37:00,7.5,1.2,30.20,WSW,238,8.1,8.1,75,0.00,,,0.00,WeatherDisplay:10.37,2013-01-23 07:37:00,
2013-01-23 02:42:00,7.4,1.4,30.20,WSW,252,1.0,0.0,76,0.00,,,0.00,WeatherDisplay:10.37,2013-01-23 07:42:00,
2013-01-23 02:47:00,7.2,1.5,30.20,ENE,76,1.1,1.1,77,0.00,,,0.00,WeatherDisplay:10.37,2013-01-23 07:47:00,
2013-01-23 02:52:00,7.1,1.1,30.20,WNW,283,5.0,5.0,76,0.00,,,0.00,WeatherDisplay:10.37,2013-01-23 07:52:00,
2013-01-23 02:57:00,7.0,1.3,30.20,NW,305,0.0,0.2,77,0.00,,,0.00,WeatherDisplay:10.37,2013-01-23 07:57:00,
2013-01-23 03:03:00,7.0,1.3,30.20,WNW,285,1.1,1.1,77,0.00,,,0.00,WeatherDisplay:10.37,2013-01-23 08:03:00,
2013-01-23 03:08:00,7.0,1.9,30.20,West,263,3.5,3.5,79,0.00,,,0.00,WeatherDisplay:10.37,2013-01-23 08:08:00,
2013-01-23 03:13:00,7.1,2.2,30.20,West,280,1.1,1.1,80,0.00,,,0.00,WeatherDisplay:10.37,2013-01-23 08:13:00,
2013-01-23 03:18:00,7.1,2.2,30.20,West,269,1.1,1.1,80,0.00,,,0.00,WeatherDisplay:10.37,2013-01-23 08:18:00,
2013-01-23 03:23:00,7.1,2.2,30.20,West,281,2.3,2.3,80,0.00,,,0.00,WeatherDisplay:10.37,2013-01-23 08:23:00,
2013-01-23 03:28:00,7.2,2.3,30.20,West,260,1.1,0.0,80,0.00,,,0.00,WeatherDisplay:10.37,2013-01-23 08:28:00,
2013-01-23 03:33:00,7.3,2.4,30.20,West,263,2.3,2.3,80,0.00,,,0.00,WeatherDisplay:10.37,2013-01-23 08:33:00,
2013-01-23 03:38:00,7.3,3.2,30.20,West,276,2.3,2.3,83,0.00,,,0.00,WeatherDisplay:10.37,2013-01-23 08:38:00,
2013-01-23 03:43:00,7.3,3.7,30.20,WNW,285,1.1,1.1,85,0.00,,,0.00,WeatherDisplay:10.37,2013-01-23 08:43:00,
2013-01-23 03:48:00,7.3,3.7,30.20,NW,318,2.3,2.3,85,0.00,,,0.00,WeatherDisplay:10.37,2013-01-23 08:48:00,
2013-01-23 03:53:00,7.3,4.0,30.20,West,273,3.5,3.5,86,0.00,,,0.00,WeatherDisplay:10.37,2013-01-23 08:53:00,
2013-01-23 03:58:00,7.4,4.1,30.20,WNW,293,3.5,3.5,86,0.00,,,0.00,WeatherDisplay:10.37,2013-01-23 08:58:00,
2013-01-23 04:03:00,7.4,4.3,30.20,WNW,285,1.0,1.0,87,0.00,,,0.00,WeatherDisplay:10.37,2013-01-23 09:03:00,
2013-01-23 04:08:00,7.5,4.4,30.21,WNW,284,2.3,2.3,87,0.00,,,0.00,WeatherDisplay:10.37,2013-01-23 09:08:00,
2013-01-23 04:13:00,7.6,4.5,30.20,WSW,245,1.1,1.1,87,0.00,,,0.00,WeatherDisplay:10.37,2013-01-23 09:13:00,
2013-01-23 04:18:00,7.6,4.5,30.20,WSW,252,2.3,2.3,87,0.00,,,0.00,WeatherDisplay:10.37,2013-01-23 09:18:00,
2013-01-23 04:23:00,7.6,4.5,30.20,West,280,1.1,1.1,87,0.00,,,0.00,WeatherDisplay:10.37,2013-01-23 09:23:00,
2013-01-23 04:28:00,7.6,4.5,30.20,NNW,329,2.3,2.3,87,0.00,,,0.00,WeatherDisplay:10.37,2013-01-23 09:28:00,
2013-01-23 04:33:00,7.6,4.5,30.20,WSW,249,0.0,0.0,87,0.00,,,0.00,WeatherDisplay:10.37,2013-01-23 09:33:00,
2013-01-23 04:38:00,7.6,4.5,30.20,NE,49,1.1,1.1,87,0.00,,,0.00,WeatherDisplay:10.37,2013-01-23 09:38:00,
2013-01-23 04:43:00,7.6,4.5,30.20,WSW,253,4.6,4.6,87,0.00,,,0.00,WeatherDisplay:10.37,2013-01-23 09:43:00,
2013-01-23 04:48:00,7.7,4.6,30.20,WNW,283,0.0,0.0,87,0.00,,,0.00,WeatherDisplay:10.37,2013-01-23 09:48:00,
2013-01-23 04:53:00,7.7,4.6,30.20,WSW,242,4.6,4.6,87,0.00,,,0.00,WeatherDisplay:10.37,2013-01-23 09:53:00,
2013-01-23 04:58:00,7.7,4.6,30.21,SW,222,2.3,2.3,87,0.00,,,0.00,WeatherDisplay:10.37,2013-01-23 09:58:00,
2013-01-23 05:03:00,7.7,4.6,30.21,WNW,290,1.1,1.1,87,0.00,,,0.00,WeatherDisplay:10.37,2013-01-23 10:03:00,
2013-01-23 05:08:00,7.7,4.9,30.21,WNW,292,3.5,3.5,88,0.00,,,0.00,WeatherDisplay:10.37,2013-01-23 10:08:00,
2013-01-23 05:13:00,7.7,4.6,30.21,NNE,25,2.3,2.3,87,0.00,,,0.00,WeatherDisplay:10.37,2013-01-23 10:13:00,
2013-01-23 05:18:00,7.8,5.0,30.21,West,269,2.3,2.3,88,0.00,,,0.00,WeatherDisplay:10.37,2013-01-23 10:18:00,
2013-01-23 05:23:00,7.8,5.0,30.21,NNE,15,0.0,0.2,88,0.00,,,0.00,WeatherDisplay:10.37,2013-01-23 10:23:00,
2013-01-23 05:28:00,7.8,5.0,30.21,NW,311,1.0,0.0,88,0.00,,,0.00,WeatherDisplay:10.37,2013-01-23 10:28:00,
2013-01-23 05:33:00,7.8,5.0,30.21,WNW,290,2.3,0.0,88,0.00,,,0.00,WeatherDisplay:10.37,2013-01-23 10:33:00,
2013-01-23 05:38:00,7.9,5.1,30.21,WSW,249,0.0,0.0,88,0.00,,,0.00,WeatherDisplay:10.37,2013-01-23 10:38:00,
2013-01-23 05:43:00,7.9,5.1,30.21,WNW,295,1.1,1.1,88,0.00,,,0.00,WeatherDisplay:10.37,2013-01-23 10:43:00,
2013-01-23 05:48:00,7.9,5.1,30.22,WSW,242,0.0,0.0,88,0.00,,,0.00,WeatherDisplay:10.37,2013-01-23 10:48:00,
2013-01-23 05:54:00,7.9,5.1,30.22,West,277,1.1,0.0,88,0.00,,,0.00,WeatherDisplay:10.37,2013-01-23 10:54:00,
2013-01-23 05:59:00,7.9,5.1,30.22,West,274,0.0,0.1,88,0.00,,,0.00,WeatherDisplay:10.37,2013-01-23 10:59:00,
2013-01-23 06:04:00,7.9,5.1,30.22,WNW,288,1.1,1.1,88,0.00,,,0.00,WeatherDisplay:10.37,2013-01-23 11:04:00,
2013-01-23 06:09:00,7.9,5.1,30.22,NNE,12,1.1,1.1,88,0.00,,,0.00,WeatherDisplay:10.37,2013-01-23 11:09:00,
2013-01-23 06:14:00,8.0,5.2,30.22,West,264,1.1,1.1,88,0.00,,,0.00,WeatherDisplay:10.37,2013-01-23 11:14:00,
2013-01-23 06:19:00,8.0,5.2,30.22,West,276,0.0,0.0,88,0.00,,,0.00,WeatherDisplay:10.37,2013-01-23 11:19:00,
2013-01-23 06:24:00,8.0,5.2,30.22,North,8,1.1,1.1,88,0.00,,,0.00,WeatherDisplay:10.37,2013-01-23 11:24:00,
2013-01-23 06:29:00,8.0,5.2,30.22,WNW,295,0.0,0.0,88,0.00,,,0.00,WeatherDisplay:10.37,2013-01-23 11:29:00,
2013-01-23 06:34:00,8.0,5.2,30.22,West,281,1.1,1.1,88,0.00,,,0.00,WeatherDisplay:10.37,2013-01-23 11:34:00,
2013-01-23 06:39:00,8.0,5.2,30.22,WSW,255,0.0,0.1,88,0.00,,,0.00,WeatherDisplay:10.37,2013-01-23 11:39:00,
2013-01-23 06:44:00,8.0,5.2,30.22,West,277,1.1,0.0,88,0.00,,,0.00,WeatherDisplay:10.37,2013-01-23 11:44:00,
2013-01-23 06:49:00,8.0,5.2,30.23,West,262,1.1,0.0,88,0.00,,,0.00,WeatherDisplay:10.37,2013-01-23 11:49:00,
2013-01-23 06:54:00,8.0,5.2,30.22,West,271,1.1,1.1,88,0.00,,,0.00,WeatherDisplay:10.37,2013-01-23 11:54:00,
2013-01-23 06:59:00,8.0,5.2,30.23,West,271,0.0,0.0,88,0.00,,,0.00,WeatherDisplay:10.37,2013-01-23 11:59:00,
2013-01-23 07:04:00,8.1,5.3,30.23,West,271,0.0,0.0,88,0.00,CLR,,0.00,WeatherDisplay:10.37,2013-01-23 12:04:00,
2013-01-23 07:09:00,8.0,5.2,30.23,WSW,257,1.1,1.1,88,0.00,CLR,,0.00,WeatherDisplay:10.37,2013-01-23 12:09:00,
2013-01-23 07:14:00,8.0,5.2,30.23,WSW,257,0.0,0.0,88,0.00,CLR,,0.00,WeatherDisplay:10.37,2013-01-23 12:14:00,
2013-01-23 07:19:00,8.1,5.3,30.23,West,277,1.1,1.1,88,0.00,CLR,,0.00,WeatherDisplay:10.37,2013-01-23 12:19:00,
2013-01-23 07:24:00,8.1,5.3,30.23,WNW,288,1.1,0.0,88,0.00,CLR,,0.00,WeatherDisplay:10.37,2013-01-23 12:24:00,
2013-01-23 07:29:00,8.1,5.3,30.23,West,270,0.0,0.0,88,0.00,CLR,,0.00,WeatherDisplay:10.37,2013-01-23 12:29:00,
2013-01-23 07:34:00,8.1,5.3,30.23,NE,34,1.1,0.0,88,0.00,CLR,,0.00,WeatherDisplay:10.37,2013-01-23 12:34:00,
2013-01-23 07:39:00,8.2,5.4,30.23,West,260,0.0,0.0,88,0.00,CLR,,0.00,WeatherDisplay:10.37,2013-01-23 12:39:00,
2013-01-23 07:44:00,8.2,5.4,30.23,West,274,0.0,0.0,88,0.00,CLR,,0.00,WeatherDisplay:10.37,2013-01-23 12:44:00,
2013-01-23 07:49:00,8.3,5.5,30.23,WNW,288,0.0,0.0,88,0.00,CLR,,0.00,WeatherDisplay:10.37,2013-01-23 12:49:00,
2013-01-23 07:54:00,8.3,5.5,30.23,SW,230,1.1,0.0,88,0.00,CLR,,0.00,WeatherDisplay:10.37,2013-01-23 12:54:00,
2013-01-23 08:00:00,8.3,5.5,30.24,WSW,257,0.0,0.0,88,0.00,CLR,,0.00,WeatherDisplay:10.37,2013-01-23 13:00:00,
2013-01-23 08:05:00,8.4,5.6,30.24,WSW,253,0.0,0.0,88,0.00,CLR,,0.00,WeatherDisplay:10.37,2013-01-23 13:05:00,
2013-01-23 08:10:00,8.3,5.2,30.24,WNW,282,1.1,1.1,87,0.00,CLR,,0.00,WeatherDisplay:10.37,2013-01-23 13:10:00,
2013-01-23 08:15:00,8.3,5.5,30.24,WSW,246,0.0,0.0,88,0.00,CLR,,0.00,WeatherDisplay:10.37,2013-01-23 13:15:00,
2013-01-23 08:20:00,8.4,5.6,30.24,NW,315,0.0,0.0,88,0.00,CLR,,0.00,WeatherDisplay:10.37,2013-01-23 13:20:00,
2013-01-23 08:25:00,8.5,5.7,30.24,NW,314,0.0,0.0,88,0.00,CLR,,0.00,WeatherDisplay:10.37,2013-01-23 13:25:00,
2013-01-23 08:30:00,8.4,5.3,30.24,WNW,293,0.0,0.1,87,0.00,CLR,,0.00,WeatherDisplay:10.37,2013-01-23 13:30:00,
2013-01-23 08:35:00,8.4,5.3,30.24,NW,322,0.0,0.0,87,0.00,CLR,,0.00,WeatherDisplay:10.37,2013-01-23 13:35:00,
2013-01-23 08:40:00,8.4,5.3,30.24,NW,322,0.0,0.0,87,0.00,CLR,,0.00,WeatherDisplay:10.37,2013-01-23 13:40:00,
2013-01-23 08:45:00,8.5,5.4,30.24,NE,53,0.0,0.0,87,0.00,CLR,,0.00,WeatherDisplay:10.37,2013-01-23 13:45:00,
2013-01-23 08:50:00,8.6,5.5,30.24,WSW,251,0.0,0.0,87,0.00,CLR,,0.00,WeatherDisplay:10.37,2013-01-23 13:50:00,
2013-01-23 08:55:00,8.6,5.5,30.25,WNW,283,0.0,0.0,87,0.00,CLR,,0.00,WeatherDisplay:10.37,2013-01-23 13:55:00,
2013-01-23 09:00:00,8.6,5.5,30.25,WNW,285,1.1,1.1,87,0.00,CLR,,0.00,WeatherDisplay:10.37,2013-01-23 14:00:00,
2013-01-23 09:05:00,8.8,6.0,30.25,West,269,1.1,0.0,88,0.00,CLR,,0.00,WeatherDisplay:10.37,2013-01-23 14:05:00,
2013-01-23 09:10:00,9.1,6.0,30.25,West,263,0.0,0.0,87,0.00,CLR,,0.00,WeatherDisplay:10.37,2013-01-23 14:10:00,
2013-01-23 09:15:00,9.2,6.1,30.25,West,273,1.1,1.1,87,0.00,CLR,,0.00,WeatherDisplay:10.37,2013-01-23 14:15:00,
2013-01-23 09:20:00,9.3,6.2,30.26,ENE,68,1.1,0.0,87,0.00,CLR,,0.00,WeatherDisplay:10.37,2013-01-23 14:20:00,
2013-01-23 09:25:00,9.2,6.1,30.26,ENE,67,0.0,0.0,87,0.00,CLR,,0.00,WeatherDisplay:10.37,2013-01-23 14:25:00,
2013-01-23 09:30:00,9.2,6.1,30.26,NNW,343,0.0,0.0,87,0.00,CLR,,0.00,WeatherDisplay:10.37,2013-01-23 14:30:00,
2013-01-23 09:35:00,9.4,6.3,30.26,WSW,248,0.0,0.0,87,0.00,CLR,,0.00,WeatherDisplay:10.37,2013-01-23 14:35:00,
2013-01-23 09:40:00,9.5,6.2,30.26,WNW,294,0.0,0.0,86,0.00,CLR,,0.00,WeatherDisplay:10.37,2013-01-23 14:40:00,
2013-01-23 09:45:00,9.6,6.3,30.26,NE,56,0.0,0.0,86,0.00,CLR,,0.00,WeatherDisplay:10.37,2013-01-23 14:45:00,
2013-01-23 09:50:00,9.7,6.4,30.27,NW,309,0.0,0.0,86,0.00,CLR,,0.00,WeatherDisplay:10.37,2013-01-23 14:50:00,
2013-01-23 09:55:00,9.9,6.6,30.27,NE,52,0.0,0.0,86,0.00,CLR,,0.00,WeatherDisplay:10.37,2013-01-23 14:55:00,
2013-01-23 10:00:00,10.1,6.5,30.27,North,353,0.0,0.1,85,0.00,CLR,,0.00,WeatherDisplay:10.37,2013-01-23 15:00:00,
2013-01-23 10:05:00,10.4,6.8,30.27,WSW,240,0.0,0.0,85,0.00,CLR,,0.00,WeatherDisplay:10.37,2013-01-23 15:05:00,
2013-01-23 10:10:00,10.5,6.6,30.27,SW,229,0.0,0.0,84,0.00,CLR,,0.00,WeatherDisplay:10.37,2013-01-23 15:10:00,
2013-01-23 10:15:00,10.6,6.7,30.27,West,274,1.1,1.1,84,0.00,CLR,,0.00,WeatherDisplay:10.37,2013-01-23 15:15:00,
2013-01-23 10:20:00,10.6,6.5,30.27,West,265,0.0,0.0,83,0.00,CLR,,0.00,WeatherDisplay:10.37,2013-01-23 15:20:00,
2013-01-23 10:25:00,10.5,6.6,30.27,North,1,1.1,1.1,84,0.00,CLR,,0.00,WeatherDisplay:10.37,2013-01-23 15:25:00,
2013-01-23 10:30:00,10.6,6.5,30.27,WSW,253,0.0,0.0,83,0.00,CLR,,0.00,WeatherDisplay:10.37,2013-01-23 15:30:00,
2013-01-23 10:35:00,10.8,6.9,30.27,SSW,197,0.0,0.0,84,0.00,CLR,,0.00,WeatherDisplay:10.37,2013-01-23 15:35:00,
2013-01-23 10:40:00,10.9,6.8,30.27,West,264,0.0,0.0,83,0.00,CLR,,0.00,WeatherDisplay:10.37,2013-01-23 15:40:00,
2013-01-23 10:45:00,10.4,5.7,30.27,SE,131,0.0,0.0,81,0.00,CLR,,0.00,WeatherDisplay:10.37,2013-01-23 15:45:00,
2013-01-23 10:51:00,10.3,5.9,30.27,NE,47,1.1,1.1,82,0.00,CLR,,0.00,WeatherDisplay:10.37,2013-01-23 15:51:00,
2013-01-23 10:56:00,10.3,6.2,30.27,North,359,0.0,0.0,83,0.00,CLR,,0.00,WeatherDisplay:10.37,2013-01-23 15:56:00,
2013-01-23 11:01:00,10.0,5.6,30.27,NE,56,1.1,0.0,82,0.00,CLR,,0.00,WeatherDisplay:10.37,2013-01-23 16:01:00,
2013-01-23 11:06:00,9.9,5.8,30.27,ENE,59,3.5,3.5,83,0.00,CLR,,0.00,WeatherDisplay:10.37,2013-01-23 16:06:00,
2013-01-23 11:11:00,9.9,5.8,30.27,ENE,58,0.0,0.0,83,0.00,CLR,,0.00,WeatherDisplay:10.37,2013-01-23 16:11:00,
2013-01-23 11:16:00,9.8,5.7,30.27,NNE,15,1.1,1.1,83,0.00,CLR,,0.00,WeatherDisplay:10.37,2013-01-23 16:16:00,
2013-01-23 11:21:00,9.8,5.7,30.26,NNE,12,1.1,1.1,83,0.00,CLR,,0.00,WeatherDisplay:10.37,2013-01-23 16:21:00,
2013-01-23 11:26:00,9.7,5.6,30.26,West,262,0.0,0.0,83,0.00,CLR,,0.00,WeatherDisplay:10.37,2013-01-23 16:26:00,
2013-01-23 11:31:00,10.0,5.9,30.26,SW,231,0.0,0.0,83,0.00,CLR,,0.00,WeatherDisplay:10.37,2013-01-23 16:31:00,
2013-01-23 11:36:00,10.4,5.7,30.26,SSW,212,0.0,0.0,81,0.00,CLR,,0.00,WeatherDisplay:10.37,2013-01-23 16:36:00,
2013-01-23 11:41:00,10.6,5.6,30.26,SSE,165,0.0,0.4,80,0.00,CLR,,0.00,WeatherDisplay:10.37,2013-01-23 16:41:00,
2013-01-23 11:46:00,10.6,5.6,30.26,ENE,60,1.0,1.0,80,0.00,CLR,,0.00,WeatherDisplay:10.37,2013-01-23 16:46:00,
2013-01-23 11:51:00,10.8,5.8,30.25,SW,233,1.1,1.1,80,0.00,CLR,,0.00,WeatherDisplay:10.37,2013-01-23 16:51:00,
2013-01-23 11:56:00,10.4,5.2,30.25,ENE,78,3.5,3.5,79,0.00,CLR,,0.00,WeatherDisplay:10.37,2013-01-23 16:56:00,
2013-01-23 12:01:00,10.2,5.5,30.25,ESE,104,1.1,0.0,81,0.00,CLR,,0.00,WeatherDisplay:10.37,2013-01-23 17:01:00,
2013-01-23 12:06:00,10.2,5.3,30.25,ENE,59,1.1,0.0,80,0.00,CLR,,0.00,WeatherDisplay:10.37,2013-01-23 17:06:00,
2013-01-23 12:11:00,9.9,5.0,30.25,ENE,60,1.1,1.1,80,0.00,CLR,,0.00,WeatherDisplay:10.37,2013-01-23 17:11:00,
2013-01-23 12:16:00,9.9,5.2,30.24,South,181,0.0,0.0,81,0.00,CLR,,0.00,WeatherDisplay:10.37,2013-01-23 17:16:00,
2013-01-23 12:21:00,10.2,5.5,30.24,ENE,71,0.0,0.1,81,0.00,CLR,,0.00,WeatherDisplay:10.37,2013-01-23 17:21:00,
2013-01-23 12:26:00,10.0,5.3,30.24,East,81,0.0,0.1,81,0.00,CLR,,0.00,WeatherDisplay:10.37,2013-01-23 17:26:00,
2013-01-23 12:31:00,10.2,5.8,30.24,NE,40,2.3,2.3,82,0.00,CLR,,0.00,WeatherDisplay:10.37,2013-01-23 17:31:00,
2013-01-23 12:36:00,9.8,4.9,30.24,ENE,68,1.1,0.0,80,0.00,CLR,,0.00,WeatherDisplay:10.37,2013-01-23 17:36:00,
2013-01-23 12:41:00,9.6,4.7,30.24,ENE,65,3.5,0.0,80,0.00,CLR,,0.00,WeatherDisplay:10.37,2013-01-23 17:41:00,
2013-01-23 12:46:00,9.4,4.5,30.23,ESE,110,2.3,0.0,80,0.00,CLR,,0.00,WeatherDisplay:10.37,2013-01-23 17:46:00,
2013-01-23 12:51:00,9.3,4.6,30.23,ESE,103,2.3,2.3,81,0.00,CLR,,0.00,WeatherDisplay:10.37,2013-01-23 17:51:00,
2013-01-23 12:56:00,9.2,4.6,30.23,WNW,285,1.1,0.0,81,0.00,CLR,,0.00,WeatherDisplay:10.37,2013-01-23 17:56:00,
2013-01-23 13:01:00,9.7,5.0,30.23,ENE,73,0.0,0.0,81,0.00,CLR,,0.00,WeatherDisplay:10.37,2013-01-23 18:01:00,
2013-01-23 13:06:00,9.8,4.9,30.23,SSE,165,0.0,0.0,80,0.00,CLR,,0.00,WeatherDisplay:10.37,2013-01-23 18:06:00,
2013-01-23 13:11:00,9.5,4.8,30.23,NE,53,1.1,1.1,81,0.00,CLR,,0.00,WeatherDisplay:10.37,2013-01-23 18:11:00,
2013-01-23 13:16:00,9.4,4.5,30.23,North,359,2.3,2.3,80,0.00,CLR,,0.00,WeatherDisplay:10.37,2013-01-23 18:16:00,
2013-01-23 13:22:00,9.2,4.3,30.22,East,91,2.3,2.3,80,0.00,CLR,,0.00,WeatherDisplay:10.37,2013-01-23 18:22:00,
2013-01-23 13:27:00,9.1,4.2,30.22,ESE,103,1.1,1.1,80,0.00,CLR,,0.00,WeatherDisplay:10.37,2013-01-23 18:27:00,
2013-01-23 13:32:00,8.9,3.7,30.22,SE,136,1.1,0.0,79,0.00,CLR,,0.00,WeatherDisplay:10.37,2013-01-23 18:32:00,
2013-01-23 13:37:00,9.1,4.2,30.22,NNW,345,0.0,0.0,80,0.00,CLR,,0.00,WeatherDisplay:10.37,2013-01-23 18:37:00,
2013-01-23 13:42:00,9.2,4.0,30.22,SE,132,1.1,0.0,79,0.00,CLR,,0.00,WeatherDisplay:10.37,2013-01-23 18:42:00,
2013-01-23 13:47:00,9.1,3.9,30.22,ENE,72,1.1,1.1,79,0.00,CLR,,0.00,WeatherDisplay:10.37,2013-01-23 18:47:00,
2013-01-23 13:52:00,9.2,4.3,30.22,SE,124,1.1,1.1,80,0.00,CLR,,0.00,WeatherDisplay:10.37,2013-01-23 18:52:00,
2013-01-23 13:57:00,9.2,4.0,30.22,South,181,1.1,1.1,79,0.00,CLR,,0.00,WeatherDisplay:10.37,2013-01-23 18:57:00,
2013-01-23 14:02:00,9.1,3.9,30.22,SE,132,0.0,0.0,79,0.00,CLR,,0.00,WeatherDisplay:10.37,2013-01-23 19:02:00,
2013-01-23 14:07:00,9.1,3.9,30.22,SE,139,0.0,0.0,79,0.00,CLR,,0.00,WeatherDisplay:10.37,2013-01-23 19:07:00,
2013-01-23 14:12:00,8.8,3.3,30.22,ESE,117,2.3,2.3,78,0.00,CLR,,0.00,WeatherDisplay:10.37,2013-01-23 19:12:00,
2013-01-23 14:17:00,8.5,3.3,30.22,ESE,104,0.0,0.0,79,0.00,CLR,,0.00,WeatherDisplay:10.37,2013-01-23 19:17:00,
2013-01-23 14:22:00,8.3,3.1,30.22,ESE,107,2.0,2.0,79,0.00,CLR,,0.00,WeatherDisplay:10.37,2013-01-23 19:22:00,
2013-01-23 14:27:00,8.2,3.0,30.22,ESE,117,1.1,1.1,79,0.00,CLR,,0.00,WeatherDisplay:10.37,2013-01-23 19:27:00,
2013-01-23 14:32:00,8.6,3.7,30.22,SSW,193,0.0,0.1,80,0.00,CLR,,0.00,WeatherDisplay:10.37,2013-01-23 19:32:00,
2013-01-23 14:37:00,8.8,3.6,30.22,SE,138,0.0,0.0,79,0.00,CLR,,0.00,WeatherDisplay:10.37,2013-01-23 19:37:00,
2013-01-23 14:42:00,8.6,3.1,30.22,East,86,1.1,1.1,78,0.00,CLR,,0.00,WeatherDisplay:10.37,2013-01-23 19:42:00,
2013-01-23 14:47:00,8.3,3.1,30.22,ESE,102,1.1,1.1,79,0.00,CLR,,0.00,WeatherDisplay:10.37,2013-01-23 19:47:00,
2013-01-23 14:52:00,8.3,3.4,30.22,SE,129,0.0,0.0,80,0.00,CLR,,0.00,WeatherDisplay:10.37,2013-01-23 19:52:00,
2013-01-23 14:57:00,8.3,2.9,30.22,East,86,1.1,0.0,78,0.00,CLR,,0.00,WeatherDisplay:10.37,2013-01-23 19:57:00,
2013-01-23 15:02:00,8.7,3.8,30.22,ESE,105,0.0,0.2,80,0.00,CLR,,0.00,WeatherDisplay:10.37,2013-01-23 20:02:00,
2013-01-23 15:07:00,8.4,2.7,30.22,SE,144,1.1,1.1,77,0.00,CLR,,0.00,WeatherDisplay:10.37,2013-01-23 20:07:00,
2013-01-23 15:12:00,8.5,3.0,30.22,ESE,114,1.1,1.1,78,0.00,CLR,,0.00,WeatherDisplay:10.37,2013-01-23 20:12:00,
2013-01-23 15:17:00,8.6,3.1,30.22,East,92,0.0,0.0,78,0.00,CLR,,0.00,WeatherDisplay:10.37,2013-01-23 20:17:00,
2013-01-23 15:22:00,8.4,2.7,30.22,SSE,160,0.0,0.0,77,0.00,CLR,,0.00,WeatherDisplay:10.37,2013-01-23 20:22:00,
2013-01-23 15:27:00,8.3,2.9,30.22,East,94,2.3,2.3,78,0.00,CLR,,0.00,WeatherDisplay:10.37,2013-01-23 20:27:00,
2013-01-23 15:32:00,8.1,2.7,30.22,East,86,1.1,1.1,78,0.00,CLR,,0.00,WeatherDisplay:10.37,2013-01-23 20:32:00,
2013-01-23 15:37:00,8.2,2.8,30.22,ESE,117,0.0,0.0,78,0.00,CLR,,0.00,WeatherDisplay:10.37,2013-01-23 20:37:00,
2013-01-23 15:42:00,8.1,2.7,30.22,East,80,1.0,0.0,78,0.00,CLR,,0.00,WeatherDisplay:10.37,2013-01-23 20:42:00,
2013-01-23 15:47:00,8.4,2.9,30.22,East,93,1.0,1.0,78,0.00,CLR,,0.00,WeatherDisplay:10.37,2013-01-23 20:47:00,
2013-01-23 15:52:00,7.9,1.9,30.22,ESE,120,2.3,2.3,76,0.00,CLR,,0.00,WeatherDisplay:10.37,2013-01-23 20:52:00,
2013-01-23 15:57:00,7.7,2.0,30.22,East,90,2.3,2.3,77,0.00,CLR,,0.00,WeatherDisplay:10.37,2013-01-23 20:57:00,
2013-01-23 16:02:00,7.6,1.9,30.22,ESE,102,1.1,1.1,77,0.00,CLR,,0.00,WeatherDisplay:10.37,2013-01-23 21:02:00,
2013-01-23 16:07:00,7.5,1.8,30.22,SE,136,0.0,0.0,77,0.00,CLR,,0.00,WeatherDisplay:10.37,2013-01-23 21:07:00,
2013-01-23 16:12:00,7.7,2.3,30.22,ESE,108,0.0,0.0,78,0.00,CLR,,0.00,WeatherDisplay:10.37,2013-01-23 21:12:00,
2013-01-23 16:17:00,7.7,2.5,30.22,East,95,1.1,1.1,79,0.00,CLR,,0.00,WeatherDisplay:10.37,2013-01-23 21:17:00,
2013-01-23 16:22:00,7.6,2.4,30.21,ESE,111,0.0,0.0,79,0.00,CLR,,0.00,WeatherDisplay:10.37,2013-01-23 21:22:00,
2013-01-23 16:27:00,7.5,2.3,30.21,East,97,0.0,0.0,79,0.00,CLR,,0.00,WeatherDisplay:10.37,2013-01-23 21:27:00,
2013-01-23 16:32:00,7.4,2.3,30.21,ESE,110,0.0,0.0,79,0.00,CLR,,0.00,WeatherDisplay:10.37,2013-01-23 21:32:00,
2013-01-23 16:37:00,7.3,2.4,30.21,ESE,103,0.0,0.0,80,0.00,CLR,,0.00,WeatherDisplay:10.37,2013-01-23 21:37:00,
2013-01-23 16:42:00,7.2,2.3,30.21,SE,125,0.0,0.0,80,0.00,CLR,,0.00,WeatherDisplay:10.37,2013-01-23 21:42:00,
2013-01-23 16:47:00,7.0,2.1,30.21,ESE,102,0.0,0.0,80,0.00,CLR,,0.00,WeatherDisplay:10.37,2013-01-23 21:47:00,
2013-01-23 16:52:00,6.8,2.2,30.21,ESE,102,0.0,0.0,81,0.00,CLR,,0.00,WeatherDisplay:10.37,2013-01-23 21:52:00,
2013-01-23 16:57:00,6.6,2.0,30.21,East,101,0.0,0.0,81,0.00,CLR,,0.00,WeatherDisplay:10.37,2013-01-23 21:57:00,
2013-01-23 17:03:00,6.4,1.8,30.21,ESE,102,0.0,0.0,81,0.00,CLR,,0.00,WeatherDisplay:10.37,2013-01-23 22:03:00,
2013-01-23 17:08:00,6.2,1.9,30.21,ESE,102,0.0,0.0,82,0.00,CLR,,0.00,WeatherDisplay:10.37,2013-01-23 22:08:00,
2013-01-23 17:13:00,6.0,1.7,30.21,East,101,0.0,0.0,82,0.00,CLR,,0.00,WeatherDisplay:10.37,2013-01-23 22:13:00,
2013-01-23 17:18:00,5.8,1.5,30.21,ESE,102,0.0,0.0,82,0.00,CLR,,0.00,WeatherDisplay:10.37,2013-01-23 22:18:00,
2013-01-23 17:23:00,5.6,1.3,30.22,East,100,0.0,0.0,82,0.00,CLR,,0.00,WeatherDisplay:10.37,2013-01-23 22:23:00,
2013-01-23 17:28:00,5.4,1.1,30.21,ESE,102,0.0,0.0,82,0.00,CLR,,0.00,WeatherDisplay:10.37,2013-01-23 22:28:00,
2013-01-23 17:33:00,5.2,0.9,30.21,East,100,0.0,0.0,82,0.00,CLR,,0.00,WeatherDisplay:10.37,2013-01-23 22:33:00,
2013-01-23 17:38:00,5.0,0.7,30.21,East,101,0.0,0.0,82,0.00,CLR,,0.00,WeatherDisplay:10.37,2013-01-23 22:38:00,
2013-01-23 17:43:00,4.8,0.5,30.21,East,100,0.0,0.0,82,0.00,,,0.00,WeatherDisplay:10.37,2013-01-23 22:43:00,
2013-01-23 17:48:00,4.7,0.7,30.21,ESE,102,0.0,0.0,83,0.00,,,0.00,WeatherDisplay:10.37,2013-01-23 22:48:00,
2013-01-23 17:53:00,4.5,0.5,30.21,East,100,0.0,0.0,83,0.00,,,0.00,WeatherDisplay:10.37,2013-01-23 22:53:00,
2013-01-23 17:58:00,4.4,0.4,30.21,East,101,0.0,0.0,83,0.00,,,0.00,WeatherDisplay:10.37,2013-01-23 22:58:00,
2013-01-23 18:03:00,4.2,0.2,30.21,East,101,0.0,0.0,83,0.00,,,0.00,WeatherDisplay:10.37,2013-01-23 23:03:00,
2013-01-23 18:08:00,4.0,0.2,30.20,East,100,0.0,0.0,84,0.00,,,0.00,WeatherDisplay:10.37,2013-01-23 23:08:00,
2013-01-23 18:13:00,3.7,-0.1,30.20,East,101,0.0,0.0,84,0.00,,,0.00,WeatherDisplay:10.37,2013-01-23 23:13:00,
2013-01-23 18:18:00,3.5,-0.2,30.20,East,100,0.0,0.0,84,0.00,,,0.00,WeatherDisplay:10.37,2013-01-23 23:18:00,
2013-01-23 18:23:00,3.2,-0.5,30.20,ESE,102,0.0,0.0,84,0.00,,,0.00,WeatherDisplay:10.37,2013-01-23 23:23:00,
2013-01-23 18:29:00,2.9,-0.8,30.20,East,100,0.0,0.0,84,0.00,,,0.00,WeatherDisplay:10.37,2013-01-23 23:29:00,
2013-01-23 18:34:00,2.6,-1.1,30.20,East,101,0.0,0.0,84,0.00,,,0.00,WeatherDisplay:10.37,2013-01-23 23:34:00,
2013-01-23 18:39:00,2.4,-1.1,30.20,East,100,0.0,0.0,85,0.00,,,0.00,WeatherDisplay:10.37,2013-01-23 23:39:00,
2013-01-23 18:44:00,2.2,-1.3,30.20,ESE,102,0.0,0.0,85,0.00,,,0.00,WeatherDisplay:10.37,2013-01-23 23:44:00,
2013-01-23 18:49:00,1.9,-1.6,30.20,East,101,0.0,0.0,85,0.00,,,0.00,WeatherDisplay:10.37,2013-01-23 23:49:00,
2013-01-23 18:54:00,1.6,-1.9,30.20,ESE,102,0.0,0.0,85,0.00,,,0.00,WeatherDisplay:10.37,2013-01-23 23:54:00,
2013-01-23 18:59:00,1.5,-1.7,30.20,East,100,0.0,0.0,86,0.00,,,0.00,WeatherDisplay:10.37,2013-01-23 23:59:00,
2013-01-23 19:04:00,1.5,-1.7,30.20,East,101,0.0,0.0,86,0.00,,,0.00,WeatherDisplay:10.37,2013-01-24 00:04:00,
2013-01-23 19:09:00,1.4,-1.8,30.20,ESE,102,0.0,0.0,86,0.00,,,0.00,WeatherDisplay:10.37,2013-01-24 00:09:00,
2013-01-23 19:14:00,1.1,-2.1,30.20,East,101,0.0,0.0,86,0.00,,,0.00,WeatherDisplay:10.37,2013-01-24 00:14:00,
2013-01-23 19:19:00,0.9,-2.3,30.20,East,100,0.0,0.0,86,0.00,,,0.00,WeatherDisplay:10.37,2013-01-24 00:19:00,
2013-01-23 19:24:00,0.7,-2.5,30.19,East,101,0.0,0.0,86,0.00,,,0.00,WeatherDisplay:10.37,2013-01-24 00:24:00,
2013-01-23 19:29:00,0.6,-2.6,30.19,East,100,0.0,0.0,86,0.00,,,0.00,WeatherDisplay:10.37,2013-01-24 00:29:00,
2013-01-23 19:34:00,0.5,-2.7,30.19,East,101,0.0,0.0,86,0.00,,,0.00,WeatherDisplay:10.37,2013-01-24 00:34:00,
2013-01-23 19:39:00,0.3,-2.9,30.19,East,100,0.0,0.0,86,0.00,,,0.00,WeatherDisplay:10.37,2013-01-24 00:39:00,
2013-01-23 19:44:00,0.3,-2.7,30.19,East,100,0.0,0.0,87,0.00,,,0.00,WeatherDisplay:10.37,2013-01-24 00:44:00,
2013-01-23 19:50:00,0.1,-2.9,30.19,East,101,0.0,0.0,87,0.00,,,0.00,WeatherDisplay:10.37,2013-01-24 00:50:00,
2013-01-23 19:55:00,-0.1,-3.0,30.19,East,100,0.0,0.0,87,0.00,,,0.00,WeatherDisplay:10.37,2013-01-24 00:55:00,
2013-01-23 20:00:00,-0.2,-3.1,30.19,East,100,0.0,0.0,87,0.00,,,0.00,WeatherDisplay:10.37,2013-01-24 01:00:00,
2013-01-23 20:05:00,-0.1,-3.0,30.19,East,101,0.0,0.0,87,0.00,,,0.00,WeatherDisplay:10.37,2013-01-24 01:05:00,
2013-01-23 20:10:00,-0.1,-3.0,30.19,East,100,0.0,0.0,87,0.00,,,0.00,WeatherDisplay:10.37,2013-01-24 01:10:00,
2013-01-23 20:15:00,-0.1,-3.0,30.19,East,101,0.0,0.0,87,0.00,,,0.00,WeatherDisplay:10.37,2013-01-24 01:15:00,
2013-01-23 20:20:00,-0.2,-3.1,30.19,East,100,0.0,0.0,87,0.00,,,0.00,WeatherDisplay:10.37,2013-01-24 01:20:00,
2013-01-23 20:25:00,-0.1,-3.0,30.19,ESE,102,0.0,0.0,87,0.00,,,0.00,WeatherDisplay:10.37,2013-01-24 01:25:00,
2013-01-23 20:30:00,0.2,-2.8,30.18,East,100,0.0,0.0,87,0.00,,,0.00,WeatherDisplay:10.37,2013-01-24 01:30:00,
2013-01-23 20:35:00,0.3,-2.7,30.18,East,100,0.0,0.0,87,0.00,,,0.00,WeatherDisplay:10.37,2013-01-24 01:35:00,
2013-01-23 20:40:00,0.2,-2.8,30.18,East,100,0.0,0.0,87,0.00,,,0.00,WeatherDisplay:10.37,2013-01-24 01:40:00,
2013-01-23 20:45:00,0.2,-2.8,30.18,East,100,0.0,0.0,87,0.00,,,0.00,WeatherDisplay:10.37,2013-01-24 01:45:00,
2013-01-23 20:50:00,0.2,-2.8,30.18,ESE,102,0.0,0.0,87,0.00,,,0.00,WeatherDisplay:10.37,2013-01-24 01:50:00,
2013-01-23 20:55:00,0.2,-3.0,30.18,East,100,0.0,0.0,86,0.00,,,0.00,WeatherDisplay:10.37,2013-01-24 01:55:00,
2013-01-23 21:00:00,0.2,-3.0,30.18,East,100,0.0,0.0,86,0.00,,,0.00,WeatherDisplay:10.37,2013-01-24 02:00:00,
2013-01-23 21:05:00,0.2,-3.0,30.18,East,100,0.0,0.0,86,0.00,,,0.00,WeatherDisplay:10.37,2013-01-24 02:05:00,
2013-01-23 21:10:00,0.4,-2.8,30.18,East,101,0.0,0.0,86,0.00,,,0.00,WeatherDisplay:10.37,2013-01-24 02:10:00,
2013-01-23 21:15:00,0.4,-2.8,30.18,East,100,0.0,0.0,86,0.00,,,0.00,WeatherDisplay:10.37,2013-01-24 02:15:00,
2013-01-23 21:20:00,0.4,-2.8,30.18,East,100,0.0,0.0,86,0.00,,,0.00,WeatherDisplay:10.37,2013-01-24 02:20:00,
2013-01-23 21:25:00,0.3,-2.9,30.18,East,100,0.0,0.0,86,0.00,,,0.00,WeatherDisplay:10.37,2013-01-24 02:25:00,
2013-01-23 21:31:00,0.2,-3.0,30.18,East,101,0.0,0.0,86,0.00,,,0.00,WeatherDisplay:10.37,2013-01-24 02:31:00,
2013-01-23 21:36:00,0.3,-2.9,30.18,East,101,0.0,0.0,86,0.00,,,0.00,WeatherDisplay:10.37,2013-01-24 02:36:00,
2013-01-23 21:41:00,0.3,-2.9,30.18,East,100,0.0,0.0,86,0.00,,,0.00,WeatherDisplay:10.37,2013-01-24 02:41:00,
2013-01-23 21:46:00,0.3,-2.9,30.18,East,101,0.0,0.0,86,0.00,,,0.00,WeatherDisplay:10.37,2013-01-24 02:46:00,
2013-01-23 21:51:00,0.3,-2.9,30.18,East,100,0.0,0.0,86,0.00,,,0.00,WeatherDisplay:10.37,2013-01-24 02:51:00,
2013-01-23 21:56:00,0.3,-2.9,30.17,East,101,0.0,0.0,86,0.00,,,0.00,WeatherDisplay:10.37,2013-01-24 02:56:00,
2013-01-23 22:01:00,0.2,-3.2,30.17,East,100,0.0,0.0,85,0.00,,,0.00,WeatherDisplay:10.37,2013-01-24 03:01:00,
2013-01-23 22:06:00,0.0,-3.4,30.18,East,100,0.0,0.0,85,0.00,,,0.00,WeatherDisplay:10.37,2013-01-24 03:06:00,
2013-01-23 22:11:00,-0.3,-3.7,30.17,East,100,0.0,0.0,85,0.00,,,0.00,WeatherDisplay:10.37,2013-01-24 03:11:00,
2013-01-23 22:16:00,-0.4,-3.8,30.17,ESE,102,0.0,0.0,85,0.00,,,0.00,WeatherDisplay:10.37,2013-01-24 03:16:00,
2013-01-23 22:21:00,-0.4,-3.6,30.17,East,101,0.0,0.0,86,0.00,,,0.00,WeatherDisplay:10.37,2013-01-24 03:21:00,
2013-01-23 22:26:00,-0.4,-3.6,30.17,East,101,0.0,0.0,86,0.00,,,0.00,WeatherDisplay:10.37,2013-01-24 03:26:00,
2013-01-23 22:31:00,-0.5,-3.7,30.17,East,100,0.0,0.0,86,0.00,,,0.00,WeatherDisplay:10.37,2013-01-24 03:31:00,
2013-01-23 22:36:00,-0.7,-3.9,30.17,ESE,102,0.0,0.0,86,0.00,,,0.00,WeatherDisplay:10.37,2013-01-24 03:36:00,
2013-01-23 22:41:00,-0.8,-4.0,30.18,ESE,102,0.0,0.0,86,0.00,,,0.00,WeatherDisplay:10.37,2013-01-24 03:41:00,
2013-01-23 22:46:00,-0.9,-4.1,30.18,East,101,0.0,0.0,86,0.00,,,0.00,WeatherDisplay:10.37,2013-01-24 03:46:00,
2013-01-23 22:51:00,-1.1,-4.3,30.18,East,101,0.0,0.0,86,0.00,,,0.00,WeatherDisplay:10.37,2013-01-24 03:51:00,
2013-01-23 22:56:00,-1.4,-4.8,30.18,East,101,0.0,0.0,85,0.00,,,0.00,WeatherDisplay:10.37,2013-01-24 03:56:00,
2013-01-23 23:01:00,-1.6,-4.8,30.18,East,100,0.0,0.0,86,0.00,,,0.00,WeatherDisplay:10.37,2013-01-24 04:01:00,
2013-01-23 23:06:00,-1.8,-5.0,30.18,East,100,0.0,0.0,86,0.00,,,0.00,WeatherDisplay:10.37,2013-01-24 04:06:00,
2013-01-23 23:11:00,-1.9,-5.1,30.18,East,101,0.0,0.0,86,0.00,,,0.00,WeatherDisplay:10.37,2013-01-24 04:11:00,
2013-01-23 23:16:00,-1.9,-5.1,30.18,ESE,102,0.0,0.0,86,0.00,,,0.00,WeatherDisplay:10.37,2013-01-24 04:16:00,
2013-01-23 23:21:00,-1.9,-4.8,30.18,East,100,0.0,0.0,87,0.00,,,0.00,WeatherDisplay:10.37,2013-01-24 04:21:00,
2013-01-23 23:26:00,-1.9,-4.8,30.18,East,100,0.0,0.0,87,0.00,,,0.00,WeatherDisplay:10.37,2013-01-24 04:26:00,